sensor_id;sensor_type;location;lat;lon;timestamp;pressure;altitude;pressure_sealevel;temperature;humidity
34925;BME280;21130;51.728;8.748;2024-02-26T00:01:46;98922.66;;;1.46;100.00
34925;BME280;21130;51.728;8.748;2024-02-26T00:04:13;98925.91;;;1.55;100.00
34925;BME280;21130;51.728;8.748;2024-02-26T00:06:39;98923.19;;;1.55;100.00
34925;BME280;21130;51.728;8.748;2024-02-26T00:15:20;98920.09;;;1.88;100.00
34925;BME280;21130;51.728;8.748;2024-02-26T00:17:47;98915.84;;;1.92;100.00
34925;BME280;21130;51.728;8.748;2024-02-26T00:20:13;98923.59;;;1.95;100.00
34925;BME280;21130;51.728;8.748;2024-02-26T00:22:39;98916.81;;;1.98;100.00
34925;BME280;21130;51.728;8.748;2024-02-26T00:25:06;98914.25;;;2.03;100.00
34925;BME280;21130;51.728;8.748;2024-02-26T00:27:32;98907.88;;;2.09;100.00
34925;BME280;21130;51.728;8.748;2024-02-26T00:29:59;98907.88;;;2.09;100.00
34925;BME280;21130;51.728;8.748;2024-02-26T00:32:27;98901.56;;;2.08;100.00
34925;BME280;21130;51.728;8.748;2024-02-26T00:34:53;98903.84;;;2.11;100.00
34925;BME280;21130;51.728;8.748;2024-02-26T00:37:40;98909.94;;;2.13;100.00
34925;BME280;21130;51.728;8.748;2024-02-26T00:40:08;98900.28;;;2.11;100.00
34925;BME280;21130;51.728;8.748;2024-02-26T00:42:35;98898.38;;;2.11;100.00
34925;BME280;21130;51.728;8.748;2024-02-26T00:45:01;98891.44;;;2.09;100.00
34925;BME280;21130;51.728;8.748;2024-02-26T00:47:29;98887.78;;;2.15;100.00
34925;BME280;21130;51.728;8.748;2024-02-26T00:49:56;98888.47;;;2.10;100.00
34925;BME280;21130;51.728;8.748;2024-02-26T00:52:22;98885.03;;;2.15;100.00
34925;BME280;21130;51.728;8.748;2024-02-26T00:54:48;98883.00;;;2.10;100.00
34925;BME280;21130;51.728;8.748;2024-02-26T00:57:15;98880.56;;;2.21;100.00
34925;BME280;21130;51.728;8.748;2024-02-26T00:59:41;98877.72;;;2.27;100.00
34925;BME280;21130;51.728;8.748;2024-02-26T01:02:08;98876.56;;;2.35;100.00
34925;BME280;21130;51.728;8.748;2024-02-26T01:04:35;98868.75;;;2.38;100.00
34925;BME280;21130;51.728;8.748;2024-02-26T01:07:02;98864.94;;;2.40;100.00
34925;BME280;21130;51.728;8.748;2024-02-26T01:09:29;98872.69;;;2.43;100.00
34925;BME280;21130;51.728;8.748;2024-02-26T01:11:55;98866.28;;;2.49;100.00
34925;BME280;21130;51.728;8.748;2024-02-26T01:14:21;98868.28;;;2.42;100.00
34925;BME280;21130;51.728;8.748;2024-02-26T01:16:48;98863.41;;;2.44;100.00
34925;BME280;21130;51.728;8.748;2024-02-26T01:19:16;98857.81;;;2.38;100.00
34925;BME280;21130;51.728;8.748;2024-02-26T01:21:44;98861.69;;;2.31;100.00
34925;BME280;21130;51.728;8.748;2024-02-26T01:24:10;98847.25;;;2.24;100.00
34925;BME280;21130;51.728;8.748;2024-02-26T01:26:36;98854.63;;;2.23;100.00
34925;BME280;21130;51.728;8.748;2024-02-26T01:29:03;98857.47;;;2.16;100.00
34925;BME280;21130;51.728;8.748;2024-02-26T01:31:29;98854.25;;;2.20;100.00
34925;BME280;21130;51.728;8.748;2024-02-26T01:33:56;98852.22;;;2.15;100.00
34925;BME280;21130;51.728;8.748;2024-02-26T01:36:22;98841.72;;;2.12;100.00
34925;BME280;21130;51.728;8.748;2024-02-26T01:39:07;98854.34;;;2.13;100.00
34925;BME280;21130;51.728;8.748;2024-02-26T01:41:52;98848.84;;;2.13;100.00
34925;BME280;21130;51.728;8.748;2024-02-26T01:44:19;98841.50;;;2.13;100.00
34925;BME280;21130;51.728;8.748;2024-02-26T01:46:45;98840.56;;;2.20;100.00
34925;BME280;21130;51.728;8.748;2024-02-26T01:49:12;98846.25;;;2.36;100.00
34925;BME280;21130;51.728;8.748;2024-02-26T01:51:39;98841.94;;;2.41;100.00
34925;BME280;21130;51.728;8.748;2024-02-26T01:54:09;98838.84;;;2.37;100.00
34925;BME280;21130;51.728;8.748;2024-02-26T01:56:36;98843.03;;;2.40;100.00
34925;BME280;21130;51.728;8.748;2024-02-26T01:59:05;98837.09;;;2.43;100.00
34925;BME280;21130;51.728;8.748;2024-02-26T02:01:31;98839.16;;;2.59;100.00
34925;BME280;21130;51.728;8.748;2024-02-26T02:04:00;98832.13;;;2.63;100.00
34925;BME280;21130;51.728;8.748;2024-02-26T02:06:27;98839.22;;;2.83;100.00
34925;BME280;21130;51.728;8.748;2024-02-26T02:08:54;98834.09;;;2.98;100.00
34925;BME280;21130;51.728;8.748;2024-02-26T02:11:21;98832.34;;;3.03;100.00
34925;BME280;21130;51.728;8.748;2024-02-26T02:13:48;98829.94;;;3.31;100.00
34925;BME280;21130;51.728;8.748;2024-02-26T02:16:15;98834.34;;;3.43;100.00
34925;BME280;21130;51.728;8.748;2024-02-26T02:18:42;98829.84;;;3.49;100.00
34925;BME280;21130;51.728;8.748;2024-02-26T02:21:10;98831.84;;;3.65;100.00
34925;BME280;21130;51.728;8.748;2024-02-26T02:23:36;98827.75;;;3.80;100.00
34925;BME280;21130;51.728;8.748;2024-02-26T02:26:03;98829.38;;;3.93;100.00
34925;BME280;21130;51.728;8.748;2024-02-26T02:28:30;98834.84;;;4.04;100.00
34925;BME280;21130;51.728;8.748;2024-02-26T02:30:57;98826.72;;;4.09;100.00
34925;BME280;21130;51.728;8.748;2024-02-26T02:33:24;98828.69;;;4.26;100.00
34925;BME280;21130;51.728;8.748;2024-02-26T02:35:51;98819.06;;;4.40;100.00
34925;BME280;21130;51.728;8.748;2024-02-26T02:38:20;98822.91;;;4.39;100.00
34925;BME280;21130;51.728;8.748;2024-02-26T02:40:48;98829.06;;;4.46;100.00
34925;BME280;21130;51.728;8.748;2024-02-26T02:43:14;98837.22;;;4.41;100.00
34925;BME280;21130;51.728;8.748;2024-02-26T02:45:41;98833.72;;;4.46;100.00
34925;BME280;21130;51.728;8.748;2024-02-26T02:48:08;98829.56;;;4.43;100.00
34925;BME280;21130;51.728;8.748;2024-02-26T02:50:34;98835.88;;;4.44;100.00
34925;BME280;21130;51.728;8.748;2024-02-26T02:53:01;98828.72;;;4.43;100.00
34925;BME280;21130;51.728;8.748;2024-02-26T02:55:28;98833.72;;;4.46;100.00
34925;BME280;21130;51.728;8.748;2024-02-26T02:57:55;98826.44;;;4.51;100.00
34925;BME280;21130;51.728;8.748;2024-02-26T03:00:21;98825.56;;;4.51;100.00
34925;BME280;21130;51.728;8.748;2024-02-26T03:02:48;98823.41;;;4.53;100.00
34925;BME280;21130;51.728;8.748;2024-02-26T03:05:15;98830.44;;;4.61;100.00
34925;BME280;21130;51.728;8.748;2024-02-26T03:07:41;98833.44;;;4.59;100.00
34925;BME280;21130;51.728;8.748;2024-02-26T03:10:08;98823.38;;;4.65;100.00
34925;BME280;21130;51.728;8.748;2024-02-26T03:12:36;98828.78;;;4.60;100.00
34925;BME280;21130;51.728;8.748;2024-02-26T03:15:03;98830.50;;;4.66;100.00
34925;BME280;21130;51.728;8.748;2024-02-26T03:17:29;98831.09;;;4.68;100.00
34925;BME280;21130;51.728;8.748;2024-02-26T03:19:56;98833.19;;;4.61;100.00
34925;BME280;21130;51.728;8.748;2024-02-26T03:22:22;98831.84;;;4.63;100.00
34925;BME280;21130;51.728;8.748;2024-02-26T03:24:49;98845.59;;;4.63;100.00
34925;BME280;21130;51.728;8.748;2024-02-26T03:27:15;98844.63;;;4.69;100.00
34925;BME280;21130;51.728;8.748;2024-02-26T03:29:43;98844.84;;;4.68;100.00
34925;BME280;21130;51.728;8.748;2024-02-26T03:32:09;98839.94;;;4.70;100.00
34925;BME280;21130;51.728;8.748;2024-02-26T03:34:36;98836.69;;;4.73;100.00
34925;BME280;21130;51.728;8.748;2024-02-26T03:37:04;98839.84;;;4.65;100.00
34925;BME280;21130;51.728;8.748;2024-02-26T03:39:30;98846.28;;;4.70;100.00
34925;BME280;21130;51.728;8.748;2024-02-26T03:41:57;98846.50;;;4.69;100.00
34925;BME280;21130;51.728;8.748;2024-02-26T03:44:23;98840.34;;;4.79;100.00
34925;BME280;21130;51.728;8.748;2024-02-26T03:46:53;98849.34;;;4.74;100.00
34925;BME280;21130;51.728;8.748;2024-02-26T03:49:19;98842.28;;;4.78;100.00
34925;BME280;21130;51.728;8.748;2024-02-26T03:51:45;98855.44;;;4.76;100.00
34925;BME280;21130;51.728;8.748;2024-02-26T03:54:12;98857.22;;;4.82;100.00
34925;BME280;21130;51.728;8.748;2024-02-26T03:56:39;98848.47;;;4.85;100.00
34925;BME280;21130;51.728;8.748;2024-02-26T03:59:05;98856.09;;;4.83;100.00
34925;BME280;21130;51.728;8.748;2024-02-26T04:01:32;98853.88;;;4.80;100.00
34925;BME280;21130;51.728;8.748;2024-02-26T04:03:59;98863.22;;;4.79;100.00
34925;BME280;21130;51.728;8.748;2024-02-26T04:06:26;98854.47;;;4.82;100.00
34925;BME280;21130;51.728;8.748;2024-02-26T04:08:52;98848.47;;;4.85;100.00
34925;BME280;21130;51.728;8.748;2024-02-26T04:11:19;98849.13;;;4.92;100.00
34925;BME280;21130;51.728;8.748;2024-02-26T04:13:45;98849.38;;;4.91;100.00
34925;BME280;21130;51.728;8.748;2024-02-26T04:16:14;98849.13;;;4.92;100.00
34925;BME280;21130;51.728;8.748;2024-02-26T04:18:41;98849.72;;;4.94;100.00
34925;BME280;21130;51.728;8.748;2024-02-26T04:21:09;98850.78;;;4.93;100.00
34925;BME280;21130;51.728;8.748;2024-02-26T04:23:37;98849.13;;;4.92;100.00
34925;BME280;21130;51.728;8.748;2024-02-26T04:26:03;98849.13;;;4.92;100.00
34925;BME280;21130;51.728;8.748;2024-02-26T04:28:30;98857.38;;;4.92;100.00
34925;BME280;21130;51.728;8.748;2024-02-26T04:30:56;98862.13;;;4.97;100.00
34925;BME280;21130;51.728;8.748;2024-02-26T04:33:23;98853.78;;;5.09;100.00
34925;BME280;21130;51.728;8.748;2024-02-26T04:35:49;98871.31;;;5.19;100.00
34925;BME280;21130;51.728;8.748;2024-02-26T04:38:17;98882.63;;;5.23;100.00
34925;BME280;21130;51.728;8.748;2024-02-26T04:40:43;98894.16;;;5.20;100.00
34925;BME280;21130;51.728;8.748;2024-02-26T04:43:09;98900.06;;;5.12;100.00
34925;BME280;21130;51.728;8.748;2024-02-26T04:45:36;98900.13;;;5.00;100.00
34925;BME280;21130;51.728;8.748;2024-02-26T04:48:02;98901.47;;;4.97;100.00
34925;BME280;21130;51.728;8.748;2024-02-26T04:50:29;98906.59;;;4.94;100.00
34925;BME280;21130;51.728;8.748;2024-02-26T04:52:55;98904.63;;;5.06;100.00
34925;BME280;21130;51.728;8.748;2024-02-26T04:55:23;98903.47;;;5.02;100.00
34925;BME280;21130;51.728;8.748;2024-02-26T04:57:50;98898.13;;;4.95;100.00
34925;BME280;21130;51.728;8.748;2024-02-26T05:00:17;98899.69;;;4.91;100.00
34925;BME280;21130;51.728;8.748;2024-02-26T05:02:43;98906.38;;;4.95;100.00
34925;BME280;21130;51.728;8.748;2024-02-26T05:05:09;98905.69;;;4.88;100.00
34925;BME280;21130;51.728;8.748;2024-02-26T05:07:39;98906.09;;;4.80;100.00
34925;BME280;21130;51.728;8.748;2024-02-26T05:10:07;98911.25;;;4.76;100.00
34925;BME280;21130;51.728;8.748;2024-02-26T05:12:35;98902.50;;;4.80;100.00
34925;BME280;21130;51.728;8.748;2024-02-26T05:15:02;98903.44;;;4.85;100.00
34925;BME280;21130;51.728;8.748;2024-02-26T05:17:28;98904.91;;;4.76;100.00
34925;BME280;21130;51.728;8.748;2024-02-26T05:19:55;98898.44;;;4.82;100.00
34925;BME280;21130;51.728;8.748;2024-02-26T05:22:21;98887.59;;;4.75;100.00
34925;BME280;21130;51.728;8.748;2024-02-26T05:24:48;98893.91;;;4.76;100.00
34925;BME280;21130;51.728;8.748;2024-02-26T05:27:15;98896.97;;;4.63;100.00
34925;BME280;21130;51.728;8.748;2024-02-26T05:29:43;98879.25;;;4.70;100.00
34925;BME280;21130;51.728;8.748;2024-02-26T05:32:09;98874.47;;;4.66;100.00
34925;BME280;21130;51.728;8.748;2024-02-26T05:34:35;98872.19;;;4.74;100.00
34925;BME280;21130;51.728;8.748;2024-02-26T05:37:02;98876.72;;;4.69;100.00
34925;BME280;21130;51.728;8.748;2024-02-26T05:39:28;98869.59;;;4.68;100.00
34925;BME280;21130;51.728;8.748;2024-02-26T05:41:55;98878.00;;;4.78;100.00
34925;BME280;21130;51.728;8.748;2024-02-26T05:44:22;98885.06;;;4.74;100.00
34925;BME280;21130;51.728;8.748;2024-02-26T05:46:50;98903.44;;;4.85;100.00
34925;BME280;21130;51.728;8.748;2024-02-26T05:49:17;98908.94;;;4.85;100.00
34925;BME280;21130;51.728;8.748;2024-02-26T05:51:43;98913.75;;;4.78;100.00
34925;BME280;21130;51.728;8.748;2024-02-26T05:54:10;98905.84;;;4.82;100.00
34925;BME280;21130;51.728;8.748;2024-02-26T05:56:36;98902.34;;;4.86;100.00
34925;BME280;21130;51.728;8.748;2024-02-26T05:59:02;98897.25;;;4.78;100.00
34925;BME280;21130;51.728;8.748;2024-02-26T06:01:29;98905.41;;;4.73;100.00
34925;BME280;21130;51.728;8.748;2024-02-26T06:03:56;98907.19;;;4.79;100.00
34925;BME280;21130;51.728;8.748;2024-02-26T06:06:23;98911.09;;;4.83;100.00
34925;BME280;21130;51.728;8.748;2024-02-26T06:08:49;98916.16;;;4.74;100.00
34925;BME280;21130;51.728;8.748;2024-02-26T06:11:16;98914.44;;;4.85;100.00
34925;BME280;21130;51.728;8.748;2024-02-26T06:13:42;98918.59;;;4.88;100.00
34925;BME280;21130;51.728;8.748;2024-02-26T06:16:08;98916.84;;;4.82;100.00
34925;BME280;21130;51.728;8.748;2024-02-26T06:18:35;98920.41;;;4.82;100.00
34925;BME280;21130;51.728;8.748;2024-02-26T06:21:03;98918.41;;;4.78;100.00
34925;BME280;21130;51.728;8.748;2024-02-26T06:23:29;98917.00;;;4.75;100.00
34925;BME280;21130;51.728;8.748;2024-02-26T06:25:56;98928.38;;;4.67;100.00
34925;BME280;21130;51.728;8.748;2024-02-26T06:28:22;98934.25;;;4.59;100.00
34925;BME280;21130;51.728;8.748;2024-02-26T06:30:49;98935.84;;;4.54;100.00
34925;BME280;21130;51.728;8.748;2024-02-26T06:33:17;98934.84;;;4.61;100.00
34925;BME280;21130;51.728;8.748;2024-02-26T06:35:44;98935.44;;;4.63;100.00
34925;BME280;21130;51.728;8.748;2024-02-26T06:38:11;98931.56;;;4.75;100.00
34925;BME280;21130;51.728;8.748;2024-02-26T06:40:39;98938.63;;;4.71;100.00
34925;BME280;21130;51.728;8.748;2024-02-26T06:43:05;98941.13;;;4.73;100.00
34925;BME280;21130;51.728;8.748;2024-02-26T06:45:31;98945.44;;;4.69;100.00
34925;BME280;21130;51.728;8.748;2024-02-26T06:47:58;98949.28;;;4.68;100.00
34925;BME280;21130;51.728;8.748;2024-02-26T06:50:24;98950.38;;;4.67;100.00
34925;BME280;21130;51.728;8.748;2024-02-26T06:52:51;98952.84;;;4.68;100.00
34925;BME280;21130;51.728;8.748;2024-02-26T06:55:19;98957.50;;;4.68;100.00
34925;BME280;21130;51.728;8.748;2024-02-26T06:57:46;98961.78;;;4.75;100.00
34925;BME280;21130;51.728;8.748;2024-02-26T07:00:13;98969.31;;;4.80;100.00
34925;BME280;21130;51.728;8.748;2024-02-26T07:02:41;98962.81;;;4.86;100.00
34925;BME280;21130;51.728;8.748;2024-02-26T07:05:08;98972.06;;;4.80;100.00
34925;BME280;21130;51.728;8.748;2024-02-26T07:07:35;98973.59;;;4.76;100.00
34925;BME280;21130;51.728;8.748;2024-02-26T07:10:01;98973.38;;;4.78;100.00
34925;BME280;21130;51.728;8.748;2024-02-26T07:12:32;98972.75;;;4.87;100.00
34925;BME280;21130;51.728;8.748;2024-02-26T07:14:58;98976.56;;;4.86;100.00
34925;BME280;21130;51.728;8.748;2024-02-26T07:17:25;98984.81;;;4.86;100.00
34925;BME280;21130;51.728;8.748;2024-02-26T07:19:52;98988.50;;;4.92;100.00
34925;BME280;21130;51.728;8.748;2024-02-26T07:22:18;98992.91;;;4.93;100.00
34925;BME280;21130;51.728;8.748;2024-02-26T07:24:44;98995.16;;;4.96;100.00
34925;BME280;21130;51.728;8.748;2024-02-26T07:27:11;98997.28;;;5.06;100.00
34925;BME280;21130;51.728;8.748;2024-02-26T07:29:39;98999.34;;;4.98;100.00
34925;BME280;21130;51.728;8.748;2024-02-26T07:32:06;98994.88;;;5.09;100.00
34925;BME280;21130;51.728;8.748;2024-02-26T07:34:32;98999.38;;;5.15;100.00
34925;BME280;21130;51.728;8.748;2024-02-26T07:36:58;98993.66;;;5.17;100.00
34925;BME280;21130;51.728;8.748;2024-02-26T07:39:25;99000.91;;;5.23;100.00
34925;BME280;21130;51.728;8.748;2024-02-26T07:41:51;99005.34;;;5.24;100.00
34925;BME280;21130;51.728;8.748;2024-02-26T07:44:18;99006.16;;;5.25;100.00
34925;BME280;21130;51.728;8.748;2024-02-26T07:46:46;99004.00;;;5.27;100.00
34925;BME280;21130;51.728;8.748;2024-02-26T07:49:12;99012.00;;;5.28;100.00
34925;BME280;21130;51.728;8.748;2024-02-26T07:51:38;99005.16;;;5.31;100.00
34925;BME280;21130;51.728;8.748;2024-02-26T07:54:05;99016.03;;;5.37;100.00
34925;BME280;21130;51.728;8.748;2024-02-26T07:56:31;99015.63;;;5.46;100.00
34925;BME280;21130;51.728;8.748;2024-02-26T07:58:58;99021.13;;;5.46;100.00
34925;BME280;21130;51.728;8.748;2024-02-26T08:01:24;99022.53;;;5.48;100.00
34925;BME280;21130;51.728;8.748;2024-02-26T08:03:53;99020.78;;;5.59;100.00
34925;BME280;21130;51.728;8.748;2024-02-26T08:06:20;99020.63;;;5.66;100.00
34925;BME280;21130;51.728;8.748;2024-02-26T08:08:47;99027.88;;;5.72;100.00
34925;BME280;21130;51.728;8.748;2024-02-26T08:11:14;99046.59;;;5.87;100.00
34925;BME280;21130;51.728;8.748;2024-02-26T08:13:41;99041.44;;;5.90;100.00
34925;BME280;21130;51.728;8.748;2024-02-26T08:16:07;99041.84;;;5.99;100.00
34925;BME280;21130;51.728;8.748;2024-02-26T08:18:34;99051.81;;;6.00;100.00
34925;BME280;21130;51.728;8.748;2024-02-26T08:21:02;99049.28;;;6.15;100.00
34925;BME280;21130;51.728;8.748;2024-02-26T08:23:28;99051.03;;;6.21;100.00
34925;BME280;21130;51.728;8.748;2024-02-26T08:25:56;99052.28;;;6.31;100.00
34925;BME280;21130;51.728;8.748;2024-02-26T08:28:22;99048.19;;;6.33;100.00
34925;BME280;21130;51.728;8.748;2024-02-26T08:30:50;99049.84;;;6.34;100.00
34925;BME280;21130;51.728;8.748;2024-02-26T08:33:16;99057.94;;;6.41;100.00
34925;BME280;21130;51.728;8.748;2024-02-26T08:35:44;99066.34;;;6.51;100.00
34925;BME280;21130;51.728;8.748;2024-02-26T08:38:12;99054.25;;;6.52;100.00
34925;BME280;21130;51.728;8.748;2024-02-26T08:40:39;99055.41;;;6.56;100.00
34925;BME280;21130;51.728;8.748;2024-02-26T08:43:05;99051.13;;;6.65;100.00
34925;BME280;21130;51.728;8.748;2024-02-26T08:45:32;99048.44;;;6.70;100.00
34925;BME280;21130;51.728;8.748;2024-02-26T08:47:58;99053.50;;;6.79;100.00
34925;BME280;21130;51.728;8.748;2024-02-26T08:50:24;99058.13;;;6.95;100.00
34925;BME280;21130;51.728;8.748;2024-02-26T08:52:51;99053.75;;;6.99;100.00
34925;BME280;21130;51.728;8.748;2024-02-26T08:55:19;99050.84;;;7.11;100.00
34925;BME280;21130;51.728;8.748;2024-02-26T08:57:46;99048.91;;;7.33;100.00
34925;BME280;21130;51.728;8.748;2024-02-26T09:00:14;99045.00;;;7.56;100.00
34925;BME280;21130;51.728;8.748;2024-02-26T09:02:43;99040.56;;;7.83;100.00
34925;BME280;21130;51.728;8.748;2024-02-26T09:05:09;99049.13;;;7.86;100.00
34925;BME280;21130;51.728;8.748;2024-02-26T09:07:36;99050.47;;;8.11;100.00
34925;BME280;21130;51.728;8.748;2024-02-26T09:10:03;99048.22;;;8.45;100.00
34925;BME280;21130;51.728;8.748;2024-02-26T09:12:31;99052.00;;;8.71;100.00
34925;BME280;21130;51.728;8.748;2024-02-26T09:14:57;99045.47;;;8.98;100.00
34925;BME280;21130;51.728;8.748;2024-02-26T09:17:24;99047.75;;;9.16;100.00
34925;BME280;21130;51.728;8.748;2024-02-26T09:19:50;99043.69;;;9.55;100.00
34925;BME280;21130;51.728;8.748;2024-02-26T09:22:17;99045.66;;;9.59;100.00
34925;BME280;21130;51.728;8.748;2024-02-26T09:24:43;99037.94;;;9.77;100.00
34925;BME280;21130;51.728;8.748;2024-02-26T09:27:09;99048.19;;;10.02;100.00
34925;BME280;21130;51.728;8.748;2024-02-26T09:29:37;99042.91;;;9.85;100.00
34925;BME280;21130;51.728;8.748;2024-02-26T09:32:04;99055.09;;;9.79;100.00
34925;BME280;21130;51.728;8.748;2024-02-26T09:34:30;99049.84;;;9.87;100.00
34925;BME280;21130;51.728;8.748;2024-02-26T09:36:57;99047.91;;;10.19;100.00
34925;BME280;21130;51.728;8.748;2024-02-26T09:39:23;99047.91;;;10.13;100.00
34925;BME280;21130;51.728;8.748;2024-02-26T09:41:50;99044.84;;;10.15;100.00
34925;BME280;21130;51.728;8.748;2024-02-26T09:44:19;99057.63;;;10.16;100.00
34925;BME280;21130;51.728;8.748;2024-02-26T09:46:47;99057.31;;;10.17;100.00
34925;BME280;21130;51.728;8.748;2024-02-26T09:49:15;99055.97;;;10.51;100.00
34925;BME280;21130;51.728;8.748;2024-02-26T09:51:42;99054.50;;;10.74;97.10
34925;BME280;21130;51.728;8.748;2024-02-26T09:54:09;99057.56;;;10.72;100.00
34925;BME280;21130;51.728;8.748;2024-02-26T09:56:37;99053.97;;;10.67;97.08
34925;BME280;21130;51.728;8.748;2024-02-26T09:59:06;99058.94;;;10.80;95.84
34925;BME280;21130;51.728;8.748;2024-02-26T10:01:37;99055.06;;;10.76;97.01
34925;BME280;21130;51.728;8.748;2024-02-26T10:04:08;99066.47;;;10.64;92.80
34925;BME280;21130;51.728;8.748;2024-02-26T10:06:36;99073.16;;;10.37;90.26
34925;BME280;21130;51.728;8.748;2024-02-26T10:09:03;99073.97;;;10.33;95.42
34925;BME280;21130;51.728;8.748;2024-02-26T10:11:32;99074.81;;;10.54;87.90
34925;BME280;21130;51.728;8.748;2024-02-26T10:13:59;99072.03;;;10.49;90.04
34925;BME280;21130;51.728;8.748;2024-02-26T10:16:25;99065.38;;;10.19;93.02
34925;BME280;21130;51.728;8.748;2024-02-26T10:18:52;99078.69;;;10.02;92.78
34925;BME280;21130;51.728;8.748;2024-02-26T10:21:21;99080.88;;;9.84;98.45
34925;BME280;21130;51.728;8.748;2024-02-26T10:23:48;99086.69;;;9.88;100.00
34925;BME280;21130;51.728;8.748;2024-02-26T10:26:16;99073.38;;;9.85;100.00
34925;BME280;21130;51.728;8.748;2024-02-26T10:28:43;99082.00;;;9.88;100.00
34925;BME280;21130;51.728;8.748;2024-02-26T10:31:10;99082.81;;;9.89;100.00
34925;BME280;21130;51.728;8.748;2024-02-26T10:33:37;99088.34;;;9.79;100.00
34925;BME280;21130;51.728;8.748;2024-02-26T10:36:05;99092.22;;;9.93;100.00
34925;BME280;21130;51.728;8.748;2024-02-26T10:38:37;99086.69;;;9.98;100.00
34925;BME280;21130;51.728;8.748;2024-02-26T10:41:03;99098.34;;;10.15;100.00
34925;BME280;21130;51.728;8.748;2024-02-26T10:43:30;99102.25;;;10.14;100.00
34925;BME280;21130;51.728;8.748;2024-02-26T10:45:57;99101.13;;;10.21;100.00
34925;BME280;21130;51.728;8.748;2024-02-26T10:48:24;99108.03;;;10.03;100.00
34925;BME280;21130;51.728;8.748;2024-02-26T10:50:50;99107.78;;;10.09;100.00
34925;BME280;21130;51.728;8.748;2024-02-26T10:53:20;99111.13;;;10.27;100.00
34925;BME280;21130;51.728;8.748;2024-02-26T10:55:49;99114.47;;;10.24;100.00
34925;BME280;21130;51.728;8.748;2024-02-26T10:58:18;99119.69;;;10.10;100.00
34925;BME280;21130;51.728;8.748;2024-02-26T11:00:46;99122.72;;;9.88;100.00
34925;BME280;21130;51.728;8.748;2024-02-26T11:03:15;99118.53;;;9.80;100.00
34925;BME280;21130;51.728;8.748;2024-02-26T11:05:43;99120.81;;;9.88;100.00
34925;BME280;21130;51.728;8.748;2024-02-26T11:08:11;99124.34;;;9.63;100.00
34925;BME280;21130;51.728;8.748;2024-02-26T11:10:38;99125.38;;;9.47;100.00
34925;BME280;21130;51.728;8.748;2024-02-26T11:13:08;99133.09;;;9.35;100.00
34925;BME280;21130;51.728;8.748;2024-02-26T11:15:36;99130.53;;;9.23;100.00
34925;BME280;21130;51.728;8.748;2024-02-26T11:18:03;99130.78;;;9.11;100.00
34925;BME280;21130;51.728;8.748;2024-02-26T11:20:32;99131.25;;;8.98;100.00
34925;BME280;21130;51.728;8.748;2024-02-26T11:22:59;99130.69;;;8.96;100.00
34925;BME280;21130;51.728;8.748;2024-02-26T11:25:26;99137.41;;;9.15;100.00
34925;BME280;21130;51.728;8.748;2024-02-26T11:27:55;99137.41;;;9.15;100.00
34925;BME280;21130;51.728;8.748;2024-02-26T11:30:25;99129.44;;;9.19;100.00
34925;BME280;21130;51.728;8.748;2024-02-26T11:32:53;99128.06;;;9.21;100.00
34925;BME280;21130;51.728;8.748;2024-02-26T11:35:19;99133.59;;;9.21;100.00
34925;BME280;21130;51.728;8.748;2024-02-26T11:37:53;99139.91;;;9.12;100.00
34925;BME280;21130;51.728;8.748;2024-02-26T11:40:21;99134.09;;;9.08;100.00
34925;BME280;21130;51.728;8.748;2024-02-26T11:42:48;99130.00;;;9.21;100.00
34925;BME280;21130;51.728;8.748;2024-02-26T11:45:52;99136.38;;;9.26;100.00
34925;BME280;21130;51.728;8.748;2024-02-26T11:48:23;99125.25;;;9.11;100.00
34925;BME280;21130;51.728;8.748;2024-02-26T11:50:50;99134.94;;;9.14;100.00
34925;BME280;21130;51.728;8.748;2024-02-26T11:53:26;99126.97;;;9.27;100.00
34925;BME280;21130;51.728;8.748;2024-02-26T11:56:19;99128.09;;;9.32;100.00
34925;BME280;21130;51.728;8.748;2024-02-26T11:58:46;99133.13;;;9.50;100.00
34925;BME280;21130;51.728;8.748;2024-02-26T12:01:41;99143.09;;;9.41;100.00
34925;BME280;21130;51.728;8.748;2024-02-26T12:04:12;99140.00;;;9.32;100.00
34925;BME280;21130;51.728;8.748;2024-02-26T12:06:50;99145.88;;;9.41;100.00
34925;BME280;21130;51.728;8.748;2024-02-26T12:09:36;99151.72;;;9.55;100.00
34925;BME280;21130;51.728;8.748;2024-02-26T12:12:04;99159.75;;;9.51;100.00
34925;BME280;21130;51.728;8.748;2024-02-26T12:14:33;99151.69;;;9.49;100.00
34925;BME280;21130;51.728;8.748;2024-02-26T12:17:07;99148.59;;;9.30;100.00
34925;BME280;21130;51.728;8.748;2024-02-26T12:19:35;99154.44;;;9.44;100.00
34925;BME280;21130;51.728;8.748;2024-02-26T12:22:01;99155.00;;;9.41;100.00
34925;BME280;21130;51.728;8.748;2024-02-26T12:24:28;99154.41;;;9.34;100.00
34925;BME280;21130;51.728;8.748;2024-02-26T12:26:54;99155.19;;;9.24;100.00
34925;BME280;21130;51.728;8.748;2024-02-26T12:29:21;99149.97;;;9.28;100.00
34925;BME280;21130;51.728;8.748;2024-02-26T12:31:47;99156.00;;;9.20;100.00
34925;BME280;21130;51.728;8.748;2024-02-26T12:34:15;99153.50;;;9.13;100.00
34925;BME280;21130;51.728;8.748;2024-02-26T12:36:44;99159.78;;;9.03;100.00
34925;BME280;21130;51.728;8.748;2024-02-26T12:39:10;99157.88;;;9.09;100.00
34925;BME280;21130;51.728;8.748;2024-02-26T12:41:38;99161.25;;;9.16;100.00
34925;BME280;21130;51.728;8.748;2024-02-26T12:44:04;99172.06;;;9.23;100.00
34925;BME280;21130;51.728;8.748;2024-02-26T12:46:32;99171.22;;;9.17;100.00
34925;BME280;21130;51.728;8.748;2024-02-26T12:48:59;99169.28;;;9.23;100.00
34925;BME280;21130;51.728;8.748;2024-02-26T12:51:26;99174.91;;;9.33;100.00
34925;BME280;21130;51.728;8.748;2024-02-26T12:53:54;99176.56;;;9.34;100.00
34925;BME280;21130;51.728;8.748;2024-02-26T12:56:22;99177.94;;;9.32;100.00
34925;BME280;21130;51.728;8.748;2024-02-26T12:58:50;99177.38;;;9.35;100.00
34925;BME280;21130;51.728;8.748;2024-02-26T13:01:19;99177.06;;;9.21;100.00
34925;BME280;21130;51.728;8.748;2024-02-26T13:03:48;99184.84;;;9.29;100.00
34925;BME280;21130;51.728;8.748;2024-02-26T13:06:15;99188.34;;;9.14;100.00
34925;BME280;21130;51.728;8.748;2024-02-26T13:08:43;99197.16;;;9.06;100.00